Time;durP1;ratioP1;P1;durP2;ratioP2;P2;SDS_P1;SDS_P2;PMS_P1;PMS_P2;Temp;Humidity;BMP_temperature;BMP_pressure;BME280_temperature;BME280_humidity;BME280_pressure;Samples;Min_cycle;Max_cycle;Signal;HPM_P1;HPM_P2
2023/01/25 00:00:06;;;;;;;;;;;14.60;56.50;;;;;;10395623;28;94629;-61
2023/01/25 00:05:07;;;;;;;;;;;14.60;56.50;;;;;;10411893;28;93449;-61
2023/01/25 00:10:10;;;;;;;;;;;14.60;56.50;;;;;;10413812;28;93751;-61
2023/01/25 00:15:12;;;;;;;;;;;14.60;56.50;;;;;;10393146;28;93652;-61
2023/01/25 00:20:13;;;;;;;;;;;14.60;56.40;;;;;;10412329;28;94484;-62
2023/01/25 00:25:16;;;;;;;;;;;14.60;56.50;;;;;;10409620;28;95306;-61
2023/01/25 00:30:18;;;;;;;;;;;14.60;56.40;;;;;;10411860;28;93324;-61
2023/01/25 00:35:20;;;;;;;;;;;14.60;56.50;;;;;;10393599;28;94198;-61
2023/01/25 00:40:21;;;;;;;;;;;14.60;56.30;;;;;;10411946;28;93466;-60
2023/01/25 00:45:23;;;;;;;;;;;14.60;56.30;;;;;;10411722;28;94255;-61
2023/01/25 00:50:25;;;;;;;;;;;14.60;56.30;;;;;;10410713;28;93526;-61
2023/01/25 00:55:27;;;;;;;;;;;14.60;56.40;;;;;;10411596;28;94229;-61
2023/01/25 01:00:28;;;;;;;;;;;14.60;56.30;;;;;;10412610;28;93876;-61
2023/01/25 01:05:30;;;;;;;;;;;14.60;56.30;;;;;;10410762;28;93423;-62
2023/01/25 01:10:32;;;;;;;;;;;14.60;56.30;;;;;;10417691;28;94180;-61
2023/01/25 01:15:36;;;;;;;;;;;14.60;56.30;;;;;;10415757;28;95215;-61
2023/01/25 01:20:38;;;;;;;;;;;14.60;56.30;;;;;;10418027;28;94386;-61
2023/01/25 01:25:40;;;;;;;;;;;14.60;56.30;;;;;;10399239;28;93297;-61
2023/01/25 01:30:42;;;;;;;;;;;14.60;56.20;;;;;;10398842;28;95600;-60
2023/01/25 01:35:45;;;;;;;;;;;14.50;56.10;;;;;;10417330;28;94413;-61
2023/01/25 01:40:48;;;;;;;;;;;14.50;56.20;;;;;;10399106;28;93404;-60
2023/01/25 01:45:54;;;;;;;;;;;14.60;56.20;;;;;;10415983;28;92549;-60
2023/01/25 01:50:59;;;;;;;;;;;14.60;56.20;;;;;;10417897;28;93780;-60
2023/01/25 01:56:03;;;;;;;;;;;14.60;56.10;;;;;;10398835;28;93435;-61
2023/01/25 02:06:46;;;;;;;;;;;14.60;56.10;;;;;;8842800;22;95507;-60
2023/01/25 02:11:48;;;;;;;;;;;14.60;56.10;;;;;;10375707;28;94585;-59
2023/01/25 02:16:50;;;;;;;;;;;14.60;56.10;;;;;;10374426;28;93429;-60
2023/01/25 02:21:52;;;;;;;;;;;14.60;56.00;;;;;;10355687;28;93230;-60
2023/01/25 02:26:54;;;;;;;;;;;14.60;56.00;;;;;;10374551;28;93115;-60
2023/01/25 02:32:01;;;;;;;;;;;14.50;56.00;;;;;;10355860;28;93358;-60
2023/01/25 02:37:03;;;;;;;;;;;14.50;56.00;;;;;;10373978;28;93489;-60
2023/01/25 02:42:04;;;;;;;;;;;14.60;56.00;;;;;;10373886;28;92356;-60
2023/01/25 02:47:06;;;;;;;;;;;14.50;55.90;;;;;;10375215;28;94444;-60
2023/01/25 02:52:07;;;;;;;;;;;14.50;55.90;;;;;;10356383;28;93439;-60
2023/01/25 02:57:09;;;;;;;;;;;14.50;55.90;;;;;;10370504;28;95726;-60
2023/01/25 03:02:11;;;;;;;;;;;14.50;55.90;;;;;;10373182;28;94055;-60
2023/01/25 03:07:13;;;;;;;;;;;14.50;55.80;;;;;;10370882;28;93617;-60
2023/01/25 03:12:15;;;;;;;;;;;14.50;55.90;;;;;;10370457;28;93218;-59
2023/01/25 03:17:17;;;;;;;;;;;14.50;55.80;;;;;;10370801;28;94422;-60
2023/01/25 03:22:19;;;;;;;;;;;14.50;55.80;;;;;;10372655;28;93592;-60
2023/01/25 03:27:20;;;;;;;;;;;14.50;55.80;;;;;;10372814;28;94445;-59
2023/01/25 03:32:22;;;;;;;;;;;14.50;55.80;;;;;;10374336;28;93874;-60
2023/01/25 03:37:28;;;;;;;;;;;14.50;55.70;;;;;;10372884;28;94432;-59
2023/01/25 03:42:30;;;;;;;;;;;14.50;55.70;;;;;;10371597;28;93590;-60
2023/01/25 03:47:32;;;;;;;;;;;14.50;55.80;;;;;;10370478;28;96864;-60
2023/01/25 03:52:37;;;;;;;;;;;14.50;55.80;;;;;;10372921;28;93509;-60
2023/01/25 03:57:39;;;;;;;;;;;14.50;55.70;;;;;;10372561;28;94513;-59
2023/01/25 04:02:40;;;;;;;;;;;14.50;55.60;;;;;;10371490;28;94461;-60
2023/01/25 04:07:43;;;;;;;;;;;14.50;55.60;;;;;;10354037;28;93580;-60
2023/01/25 04:12:44;;;;;;;;;;;14.50;55.70;;;;;;10353438;28;93567;-60
2023/01/25 04:17:46;;;;;;;;;;;14.50;55.70;;;;;;10352519;28;93032;-59
2023/01/25 04:22:48;;;;;;;;;;;14.50;55.60;;;;;;10354701;28;92813;-60
2023/01/25 04:27:50;;;;;;;;;;;14.50;55.50;;;;;;10371975;28;93212;-60
2023/01/25 04:32:52;;;;;;;;;;;14.50;55.60;;;;;;10370304;28;93388;-59
2023/01/25 04:37:54;;;;;;;;;;;14.50;55.60;;;;;;10368487;28;96468;-60
2023/01/25 04:42:56;;;;;;;;;;;14.50;55.70;;;;;;10372667;28;92434;-60
2023/01/25 06:05:27;;;;;;;;;;;14.90;54.90;;;;;;10351643;28;94769;-60
2023/01/25 06:10:28;;;;;;;;;;;15.20;54.50;;;;;;10374993;28;93427;-60
2023/01/25 06:15:30;;;;;;;;;;;15.40;54.20;;;;;;10375308;28;93396;-60
2023/01/25 06:20:32;;;;;;;;;;;15.50;54.00;;;;;;10375604;28;92543;-60
2023/01/25 06:25:34;;;;;;;;;;;15.70;53.70;;;;;;10356464;28;93296;-60
2023/01/25 06:30:36;;;;;;;;;;;15.80;53.40;;;;;;10374094;28;93469;-61
2023/01/25 06:35:39;;;;;;;;;;;15.90;53.30;;;;;;10354196;28;96906;-60
2023/01/25 06:40:40;;;;;;;;;;;15.90;53.10;;;;;;10374037;28;93276;-61
2023/01/25 06:45:42;;;;;;;;;;;16.00;53.00;;;;;;10373820;28;93419;-61
2023/01/25 06:50:44;;;;;;;;;;;16.00;52.90;;;;;;10357244;28;94244;-61
2023/01/25 06:55:45;;;;;;;;;;;16.10;54.10;;;;;;10356614;28;93202;-60
2023/01/25 07:00:48;;;;;;;;;;;16.40;53.80;;;;;;10373664;28;94232;-60
2023/01/25 07:05:50;;;;;;;;;;;16.60;53.50;;;;;;10376984;28;93249;-61
2023/01/25 07:10:59;;;;;;;;;;;16.70;53.70;;;;;;10415944;28;93707;-60
2023/01/25 07:16:05;;;;;;;;;;;16.70;52.80;;;;;;10397349;28;93676;-61
2023/01/25 07:21:15;;;;;;;;;;;16.60;51.40;;;;;;10414386;28;93358;-61
2023/01/25 07:26:21;;;;;;;;;;;16.40;50.90;;;;;;10412466;28;95728;-60
2023/01/25 07:31:22;;;;;;;;;;;16.30;50.60;;;;;;10396727;28;94073;-60
2023/01/25 07:36:25;;;;;;;;;;;16.10;50.60;;;;;;10413405;28;93855;-61
2023/01/25 07:41:26;;;;;;;;;;;15.90;50.40;;;;;;10414784;28;93828;-61
2023/01/25 07:46:28;;;;;;;;;;;15.80;50.40;;;;;;10413442;28;93425;-61
2023/01/25 07:51:30;;;;;;;;;;;15.70;50.50;;;;;;10413534;28;93469;-61
2023/01/25 07:56:33;;;;;;;;;;;15.50;50.40;;;;;;10413316;28;93524;-60
2023/01/25 08:01:35;;;;;;;;;;;15.40;50.30;;;;;;10413253;28;92884;-60
2023/01/25 08:06:37;;;;;;;;;;;15.30;50.90;;;;;;10412271;28;93925;-61
2023/01/25 08:11:40;;;;;;;;;;;15.20;50.70;;;;;;10412590;28;93403;-60
2023/01/25 08:16:42;;;;;;;;;;;15.10;50.90;;;;;;10409386;28;96244;-61
2023/01/25 08:21:44;;;;;;;;;;;15.10;51.20;;;;;;10394641;28;94387;-61
2023/01/25 08:26:46;;;;;;;;;;;15.00;51.20;;;;;;10412477;28;94618;-61
2023/01/25 08:31:48;;;;;;;;;;;14.90;51.10;;;;;;10412338;28;94258;-61
2023/01/25 08:36:50;;;;;;;;;;;14.80;51.20;;;;;;10411785;28;93589;-61
2023/01/25 08:41:56;;;;;;;;;;;14.70;51.10;;;;;;10411633;28;93278;-61
2023/01/25 08:46:58;;;;;;;;;;;14.70;51.10;;;;;;10411630;28;94437;-61
2023/01/25 08:52:00;;;;;;;;;;;14.60;51.30;;;;;;10412481;28;93512;-61
2023/01/25 08:57:02;;;;;;;;;;;14.60;51.30;;;;;;10411048;28;93464;-61
2023/01/25 09:02:03;;;;;;;;;;;14.50;51.70;;;;;;10411206;28;94492;-61
2023/01/25 09:07:06;;;;;;;;;;;14.50;51.50;;;;;;10408452;28;96160;-61
2023/01/25 09:12:08;;;;;;;;;;;14.50;50.50;;;;;;10393487;28;94796;-61
2023/01/25 09:17:10;;;;;;;;;;;14.70;50.40;;;;;;10394300;28;93558;-61
2023/01/25 09:22:12;;;;;;;;;;;14.90;50.30;;;;;;10411280;28;93995;-61
2023/01/25 09:27:14;;;;;;;;;;;15.10;49.90;;;;;;10393228;28;93760;-60
2023/01/25 09:32:15;;;;;;;;;;;15.20;49.40;;;;;;10419036;28;93335;-61
2023/01/25 09:37:18;;;;;;;;;;;15.20;49.40;;;;;;10417930;28;93504;-61
2023/01/25 09:42:42;;;;;;;;;;;15.20;49.50;;;;;;10418820;28;93971;-61
2023/01/25 09:47:44;;;;;;;;;;;15.20;49.70;;;;;;10417326;28;93838;-61
2023/01/25 09:53:04;;;;;;;;;;;15.10;49.80;;;;;;10417437;28;94443;-61
2023/01/25 09:58:09;;;;;;;;;;;15.10;49.90;;;;;;10415228;28;96869;-61
2023/01/25 10:03:26;;;;;;;;;;;15.00;50.10;;;;;;10416910;28;93477;-61
2023/01/25 10:08:43;;;;;;;;;;;14.90;50.20;;;;;;10417619;28;94691;-61
2023/01/25 10:13:45;;;;;;;;;;;14.80;50.30;;;;;;10416163;28;93667;-61
2023/01/25 10:18:46;;;;;;;;;;;14.80;50.50;;;;;;10417483;28;94330;-61
2023/01/25 10:24:05;;;;;;;;;;;14.80;50.80;;;;;;10416354;28;94535;-61
2023/01/25 10:29:10;;;;;;;;;;;14.70;51.20;;;;;;10415850;28;93489;-61
2023/01/25 10:34:23;;;;;;;;;;;14.70;51.40;;;;;;10416599;28;92919;-60
2023/01/25 10:39:24;;;;;;;;;;;14.70;51.60;;;;;;10414948;27;92551;-60
2023/01/25 10:44:27;;;;;;;;;;;14.60;51.80;;;;;;10416817;28;94634;-60
2023/01/25 10:49:38;;;;;;;;;;;14.60;51.60;;;;;;10394872;28;95834;-60
2023/01/25 10:54:41;;;;;;;;;;;14.60;51.60;;;;;;10415032;28;93911;-60
2023/01/25 10:59:48;;;;;;;;;;;14.60;51.60;;;;;;10397784;28;93935;-61
2023/01/25 11:04:50;;;;;;;;;;;14.60;51.60;;;;;;10413706;28;93781;-60
2023/01/25 11:09:52;;;;;;;;;;;14.50;51.60;;;;;;10414616;28;94591;-60
2023/01/25 11:14:54;;;;;;;;;;;14.50;51.60;;;;;;10413454;28;93672;-60
2023/01/25 11:20:06;;;;;;;;;;;14.50;51.80;;;;;;10414391;28;94552;-60
2023/01/25 11:25:23;;;;;;;;;;;14.50;51.90;;;;;;10415411;28;93754;-60
2023/01/25 11:30:25;;;;;;;;;;;14.50;51.90;;;;;;10414752;28;94558;-61
2023/01/25 11:35:31;;;;;;;;;;;14.50;51.90;;;;;;10413841;28;93114;-60
2023/01/25 11:40:47;;;;;;;;;;;14.50;51.90;;;;;;10410978;28;95840;-61
2023/01/25 11:46:00;;;;;;;;;;;14.50;52.00;;;;;;10414744;28;94123;-60
2023/01/25 11:51:07;;;;;;;;;;;14.50;52.10;;;;;;10413192;27;93519;-60
2023/01/25 11:56:09;;;;;;;;;;;14.50;52.00;;;;;;10413391;28;93535;-61
2023/01/25 12:01:13;;;;;;;;;;;14.50;52.00;;;;;;10395233;28;93469;-61
2023/01/25 12:06:24;;;;;;;;;;;14.50;52.00;;;;;;10412919;28;93182;-61
2023/01/25 12:11:45;;;;;;;;;;;14.50;52.10;;;;;;10395518;28;93568;-61
2023/01/25 12:16:47;;;;;;;;;;;14.50;52.30;;;;;;10413111;28;92851;-60
2023/01/25 12:21:57;;;;;;;;;;;14.50;52.20;;;;;;10412768;28;93504;-60
2023/01/25 12:27:10;;;;;;;;;;;14.50;52.10;;;;;;10394390;28;94859;-60
2023/01/25 12:32:12;;;;;;;;;;;14.50;52.10;;;;;;10410133;28;95838;-60
2023/01/25 12:37:17;;;;;;;;;;;14.50;52.30;;;;;;10412062;28;92849;-60
2023/01/25 12:42:21;;;;;;;;;;;14.50;52.30;;;;;;10411070;28;93122;-60
2023/01/25 12:47:31;;;;;;;;;;;14.50;52.20;;;;;;10412354;28;94656;-60
2023/01/25 12:52:34;;;;;;;;;;;14.50;52.20;;;;;;10393731;28;94487;-60
2023/01/25 12:57:54;;;;;;;;;;;14.50;52.10;;;;;;10411598;28;93531;-60
2023/01/25 13:02:59;;;;;;;;;;;14.50;52.30;;;;;;10413355;27;93495;-60
2023/01/25 13:08:17;;;;;;;;;;;14.50;52.30;;;;;;10401936;28;92658;-60
2023/01/25 13:13:33;;;;;;;;;;;14.50;52.30;;;;;;10419478;28;92839;-60
2023/01/25 13:18:35;;;;;;;;;;;14.50;52.20;;;;;;10418466;28;94037;-60
2023/01/25 13:23:49;;;;;;;;;;;14.50;52.20;;;;;;10415787;28;95899;-60
2023/01/25 13:28:52;;;;;;;;;;;14.50;52.30;;;;;;10418842;28;94575;-60
2023/01/25 13:33:53;;;;;;;;;;;14.50;52.30;;;;;;10418379;28;93662;-60
2023/01/25 13:38:55;;;;;;;;;;;14.60;52.40;;;;;;10418534;28;94241;-60
2023/01/25 13:44:10;;;;;;;;;;;14.50;52.30;;;;;;10417832;28;94214;-60
2023/01/25 13:49:18;;;;;;;;;;;14.50;52.30;;;;;;10399990;28;94051;-60
2023/01/25 13:54:19;;;;;;;;;;;14.50;52.40;;;;;;10417147;28;94258;-60
2023/01/25 13:59:25;;;;;;;;;;;14.60;52.40;;;;;;10418546;28;92192;-60
2023/01/25 14:04:28;;;;;;;;;;;14.60;52.40;;;;;;10416945;28;94763;-60
2023/01/25 14:09:30;;;;;;;;;;;14.60;52.30;;;;;;10416827;28;94446;-60
2023/01/25 14:14:33;;;;;;;;;;;14.60;52.30;;;;;;10414054;28;96564;-60
2023/01/25 14:19:35;;;;;;;;;;;14.50;52.30;;;;;;10417353;28;94508;-61
2023/01/25 14:24:37;;;;;;;;;;;14.60;52.40;;;;;;10415971;28;93508;-60
2023/01/25 14:29:38;;;;;;;;;;;14.60;52.50;;;;;;10416421;28;93449;-60
2023/01/25 14:34:40;;;;;;;;;;;14.60;52.40;;;;;;10398772;28;93432;-63
2023/01/25 14:39:43;;;;;;;;;;;14.60;52.40;;;;;;10416448;28;93528;-60
2023/01/25 14:44:44;;;;;;;;;;;14.50;52.30;;;;;;10416472;28;93497;-60
2023/01/25 14:49:46;;;;;;;;;;;14.50;52.40;;;;;;10418241;28;95531;-60
2023/01/25 14:54:51;;;;;;;;;;;14.50;52.40;;;;;;10397569;28;94470;-60
2023/01/25 14:59:53;;;;;;;;;;;14.60;52.50;;;;;;10415308;28;94861;-61
2023/01/25 15:04:59;;;;;;;;;;;14.50;52.30;;;;;;10412765;28;96599;-60
2023/01/25 15:10:22;;;;;;;;;;;14.50;52.30;;;;;;10399651;28;94432;-60
2023/01/25 15:15:25;;;;;;;;;;;14.50;52.50;;;;;;10413926;28;93335;-60
2023/01/25 15:20:28;;;;;;;;;;;14.50;52.40;;;;;;10396533;28;93511;-60
2023/01/25 15:25:30;;;;;;;;;;;14.50;52.30;;;;;;10413219;27;94009;-60
2023/01/25 15:30:32;;;;;;;;;;;14.50;52.30;;;;;;10412977;28;93229;-60
2023/01/25 15:35:34;;;;;;;;;;;14.50;54.20;;;;;;10413961;28;94412;-60
2023/01/25 15:40:36;;;;;;;;;;;14.50;54.60;;;;;;10414770;28;92721;-61
2023/01/25 15:45:39;;;;;;;;;;;14.70;53.90;;;;;;10413642;28;94146;-60
2023/01/25 15:50:40;;;;;;;;;;;14.80;54.40;;;;;;10396610;28;94483;-60
2023/01/25 15:55:44;;;;;;;;;;;15.10;53.10;;;;;;10411357;28;98216;-60
2023/01/25 16:00:45;;;;;;;;;;;15.40;52.70;;;;;;10414504;28;94438;-60
2023/01/25 16:05:48;;;;;;;;;;;15.70;52.30;;;;;;10412319;28;94499;-60
2023/01/25 16:10:52;;;;;;;;;;;15.90;51.90;;;;;;10412418;28;93547;-61
2023/01/25 16:15:54;;;;;;;;;;;16.10;51.50;;;;;;10393320;28;93451;-60
2023/01/25 16:20:56;;;;;;;;;;;16.20;51.10;;;;;;10412849;28;94142;-61
2023/01/25 16:25:58;;;;;;;;;;;16.40;50.90;;;;;;10394987;28;94677;-61
2023/01/25 16:31:00;;;;;;;;;;;16.50;50.70;;;;;;10395242;28;96168;-60
2023/01/25 16:36:10;;;;;;;;;;;16.60;50.40;;;;;;10411745;28;94566;-60
2023/01/25 16:41:13;;;;;;;;;;;16.70;50.30;;;;;;10410620;28;93444;-60
2023/01/25 16:46:16;;;;;;;;;;;16.80;50.30;;;;;;10408820;28;97224;-60
2023/01/25 16:51:22;;;;;;;;;;;16.90;50.50;;;;;;10376128;28;94393;-60
2023/01/25 16:56:25;;;;;;;;;;;17.00;52.40;;;;;;10410411;28;94478;-60
2023/01/25 17:01:27;;;;;;;;;;;17.10;58.30;;;;;;10396264;28;94537;-60
2023/01/25 17:06:30;;;;;;;;;;;17.10;66.80;;;;;;10410076;28;94393;-60
2023/01/25 17:11:34;;;;;;;;;;;17.20;67.60;;;;;;10393941;28;94275;-61
2023/01/25 17:16:36;;;;;;;;;;;17.20;64.20;;;;;;10411897;28;94456;-63
2023/01/25 17:21:38;;;;;;;;;;;17.40;63.20;;;;;;10411863;28;93852;-61
2023/01/25 17:26:40;;;;;;;;;;;17.50;61.90;;;;;;10409789;28;93631;-60
2023/01/25 17:31:43;;;;;;;;;;;17.70;61.10;;;;;;10410774;28;94102;-60
2023/01/25 17:36:45;;;;;;;;;;;17.90;60.40;;;;;;10389082;28;95785;-61
2023/01/25 17:41:48;;;;;;;;;;;18.00;59.50;;;;;;10410560;28;92744;-61
2023/01/25 17:46:50;;;;;;;;;;;18.00;58.40;;;;;;10409462;28;94486;-61
2023/01/25 17:51:51;;;;;;;;;;;18.00;58.20;;;;;;10416877;27;94455;-60
2023/01/25 17:56:53;;;;;;;;;;;18.10;58.70;;;;;;10417415;28;93948;-60
2023/01/25 18:01:56;;;;;;;;;;;18.10;57.90;;;;;;10416404;28;93219;-60
2023/01/25 18:06:58;;;;;;;;;;;18.10;57.40;;;;;;10384858;28;93692;-60
2023/01/25 18:12:00;;;;;;;;;;;18.20;57.10;;;;;;10415191;28;95118;-60
2023/01/25 18:17:01;;;;;;;;;;;18.20;56.80;;;;;;10371311;28;93625;-60
2023/01/25 18:22:03;;;;;;;;;;;18.20;56.70;;;;;;10374626;28;94475;-60
2023/01/25 18:27:19;;;;;;;;;;;18.30;56.40;;;;;;10353494;28;96219;-60
2023/01/25 18:32:21;;;;;;;;;;;18.30;56.20;;;;;;10356064;28;94488;-61
2023/01/25 18:37:24;;;;;;;;;;;18.30;55.70;;;;;;10351380;28;94724;-60
2023/01/25 18:42:26;;;;;;;;;;;18.40;55.30;;;;;;10371981;28;94006;-60
2023/01/25 18:47:30;;;;;;;;;;;18.40;55.80;;;;;;10372539;28;93563;-61
2023/01/25 18:52:33;;;;;;;;;;;18.40;56.30;;;;;;10372704;28;94201;-61
2023/01/25 18:57:34;;;;;;;;;;;18.40;55.80;;;;;;10372541;28;93480;-61
2023/01/25 19:02:36;;;;;;;;;;;18.50;55.60;;;;;;10371416;28;93615;-60
2023/01/25 19:07:38;;;;;;;;;;;18.50;55.20;;;;;;10371504;28;93523;-60
2023/01/25 19:12:40;;;;;;;;;;;18.50;55.00;;;;;;10354106;28;93433;-60
2023/01/25 19:17:42;;;;;;;;;;;18.40;54.80;;;;;;10369581;28;95919;-61
2023/01/25 19:22:46;;;;;;;;;;;18.30;54.90;;;;;;10353499;28;113820;-60
2023/01/25 19:27:48;;;;;;;;;;;18.20;55.00;;;;;;10354514;28;94430;-60
2023/01/25 19:32:50;;;;;;;;;;;18.20;55.10;;;;;;10371542;28;94432;-60
2023/01/25 19:37:51;;;;;;;;;;;18.20;55.10;;;;;;10372330;28;93505;-60
2023/01/25 19:42:53;;;;;;;;;;;18.20;54.80;;;;;;10371620;28;94637;-60
2023/01/25 19:47:55;;;;;;;;;;;18.20;54.50;;;;;;10369781;28;93866;-60
2023/01/25 19:52:57;;;;;;;;;;;18.30;54.30;;;;;;10371789;28;92730;-61
2023/01/25 19:57:58;;;;;;;;;;;18.40;54.50;;;;;;10370247;28;93000;-61
2023/01/25 20:03:00;;;;;;;;;;;18.40;54.40;;;;;;10369568;28;93439;-60
2023/01/25 20:08:16;;;;;;;;;;;18.30;54.40;;;;;;10367527;28;97125;-60
2023/01/25 20:13:18;;;;;;;;;;;18.30;54.60;;;;;;10352308;28;94269;-60
2023/01/25 20:18:19;;;;;;;;;;;18.40;54.80;;;;;;10370198;28;92898;-60
2023/01/25 20:23:21;;;;;;;;;;;18.40;54.90;;;;;;10369826;28;94222;-60
2023/01/25 20:28:23;;;;;;;;;;;18.40;55.10;;;;;;10370646;28;93246;-60
2023/01/25 20:33:25;;;;;;;;;;;18.40;55.10;;;;;;10388067;28;93419;-60
2023/01/25 20:38:30;;;;;;;;;;;18.30;55.10;;;;;;10403263;28;93723;-61
2023/01/25 20:43:31;;;;;;;;;;;18.30;55.40;;;;;;10391896;28;93081;-60
2023/01/25 20:48:35;;;;;;;;;;;18.10;55.60;;;;;;10410634;28;93367;-60
2023/01/25 20:53:37;;;;;;;;;;;18.00;55.90;;;;;;10395258;28;94229;-61
2023/01/25 20:58:40;;;;;;;;;;;17.90;56.30;;;;;;10367287;28;96993;-60
2023/01/25 21:03:41;;;;;;;;;;;17.70;56.60;;;;;;10368432;28;92806;-59
2023/01/25 21:08:43;;;;;;;;;;;17.50;57.00;;;;;;10370282;28;94485;-60
2023/01/25 21:13:46;;;;;;;;;;;17.50;57.20;;;;;;10368146;28;93458;-60
2023/01/25 21:18:49;;;;;;;;;;;17.30;57.50;;;;;;10335130;28;94310;-60
2023/01/25 21:23:51;;;;;;;;;;;17.20;57.60;;;;;;10368955;28;93255;-61
2023/01/25 21:28:53;;;;;;;;;;;17.10;57.90;;;;;;10375298;28;93659;-61
2023/01/25 21:33:55;;;;;;;;;;;17.00;58.20;;;;;;10357943;28;92533;-61
2023/01/25 21:38:57;;;;;;;;;;;16.90;58.50;;;;;;10374612;28;93452;-61
2023/01/25 21:54:39;;;;;;;;;;;16.60;58.80;;;;;;10375922;28;93436;-60
2023/01/25 21:59:41;;;;;;;;;;;16.60;59.10;;;;;;10356797;28;94423;-60
2023/01/25 22:04:43;;;;;;;;;;;16.50;58.90;;;;;;10373598;28;94447;-60
2023/01/25 22:09:45;;;;;;;;;;;16.40;58.70;;;;;;10356547;28;94452;-61
2023/01/25 22:14:47;;;;;;;;;;;16.40;58.70;;;;;;10374351;28;95076;-60
2023/01/25 22:19:48;;;;;;;;;;;16.30;58.10;;;;;;10374709;28;93512;-60
2023/01/25 22:24:50;;;;;;;;;;;16.20;58.10;;;;;;10357193;28;92739;-60
2023/01/25 22:29:52;;;;;;;;;;;16.10;58.00;;;;;;10373306;28;94404;-59
2023/01/25 22:34:54;;;;;;;;;;;16.10;57.80;;;;;;10356180;28;94356;-60
2023/01/25 22:39:57;;;;;;;;;;;15.90;57.80;;;;;;10354111;28;96994;-61
2023/01/25 22:44:59;;;;;;;;;;;15.90;57.90;;;;;;10374945;28;92580;-60
2023/01/25 22:50:00;;;;;;;;;;;15.80;57.90;;;;;;10373908;28;94790;-60
2023/01/25 22:55:02;;;;;;;;;;;15.80;58.00;;;;;;10372685;28;92846;-60
2023/01/25 23:00:04;;;;;;;;;;;15.70;57.90;;;;;;10373745;28;93951;-61
2023/01/25 23:05:06;;;;;;;;;;;15.60;57.90;;;;;;10372601;28;94570;-60
2023/01/25 23:10:08;;;;;;;;;;;15.60;58.00;;;;;;10373021;28;94114;-60
2023/01/25 23:15:14;;;;;;;;;;;15.60;58.00;;;;;;10373417;28;92663;-60
2023/01/25 23:20:16;;;;;;;;;;;15.50;57.90;;;;;;10354890;28;93455;-60
2023/01/25 23:25:18;;;;;;;;;;;15.50;57.90;;;;;;10355008;28;93484;-60
2023/01/25 23:30:20;;;;;;;;;;;15.50;57.90;;;;;;10369917;28;96126;-60
2023/01/25 23:35:22;;;;;;;;;;;15.40;57.90;;;;;;10372810;28;93628;-60
2023/01/25 23:40:23;;;;;;;;;;;15.40;57.80;;;;;;10372059;28;93254;-60
2023/01/25 23:45:25;;;;;;;;;;;15.40;57.80;;;;;;10372912;28;94354;-60
2023/01/25 23:50:27;;;;;;;;;;;15.30;57.80;;;;;;10372737;28;94473;-59
2023/01/25 23:55:28;;;;;;;;;;;15.30;57.80;;;;;;10393356;28;93595;-60
